createdAt,value
2017-10-12T00:00:21.318Z,14.35
2017-10-12T00:01:21.022Z,14.41
2017-10-12T00:02:21.038Z,14.36
2017-10-12T00:03:21.057Z,14.32
2017-10-12T00:04:21.413Z,14.33
2017-10-12T00:05:21.099Z,14.33
2017-10-12T00:06:21.122Z,14.33
2017-10-12T00:07:21.139Z,14.4
2017-10-12T00:08:21.487Z,14.45
2017-10-12T00:09:21.183Z,14.51
2017-10-12T00:10:21.200Z,14.5
2017-10-12T00:11:21.226Z,14.51
2017-10-12T00:12:21.242Z,14.51
2017-10-12T00:13:21.264Z,14.51
2017-10-12T00:14:21.298Z,14.55
2017-10-12T00:15:21.309Z,14.51
2017-10-12T00:16:21.661Z,14.3
2017-10-12T00:17:21.347Z,14.14
2017-10-12T00:18:21.370Z,14.12
2017-10-12T00:19:21.390Z,14.18
2017-10-12T00:20:21.788Z,14.1
2017-10-12T00:21:21.437Z,14.12
2017-10-12T00:22:21.456Z,14.12
2017-10-12T00:23:21.478Z,14.17
2017-10-12T00:24:21.492Z,14.18
2017-10-12T00:25:21.511Z,14.17
2017-10-12T00:26:21.539Z,14.2
2017-10-12T00:27:21.553Z,14.25
2017-10-12T00:28:21.577Z,14.22
2017-10-12T00:29:21.594Z,14.23
2017-10-12T00:30:21.616Z,14.26
2017-10-12T00:31:21.636Z,14.2
2017-10-12T00:32:21.660Z,14.17
2017-10-12T00:33:22.008Z,14.07
2017-10-12T00:34:22.041Z,14.08
2017-10-12T00:35:21.771Z,14.1
2017-10-12T00:36:21.743Z,14.1
2017-10-12T00:37:21.763Z,13.99
2017-10-12T00:38:21.782Z,13.86
2017-10-12T00:39:21.803Z,13.78
2017-10-12T00:40:21.823Z,13.86
2017-10-12T00:41:21.848Z,13.92
2017-10-12T00:42:21.883Z,13.86
2017-10-12T00:43:21.882Z,13.9
2017-10-12T00:44:21.901Z,13.97
2017-10-12T00:45:21.926Z,13.99
2017-10-12T00:46:21.950Z,13.93
2017-10-12T00:47:21.964Z,14.07
2017-10-12T00:48:21.986Z,14.08
2017-10-12T00:49:22.002Z,14.05
2017-10-12T00:50:22.427Z,14.14
2017-10-12T00:51:22.042Z,14.2
2017-10-12T00:52:22.071Z,14.05
2017-10-12T00:53:22.104Z,14.22
2017-10-12T00:54:22.111Z,14.2
2017-10-12T00:55:22.452Z,14.23
2017-10-12T00:56:22.147Z,14.3
2017-10-12T00:57:22.168Z,14.14
2017-10-12T00:58:28.729Z,14.15
2017-10-12T00:59:22.531Z,14.18
2017-10-12T01:00:22.228Z,14.25
2017-10-12T01:01:22.250Z,14.18
2017-10-12T01:02:22.269Z,14.18
2017-10-12T01:03:22.290Z,14.14
2017-10-12T01:04:22.311Z,14.2
2017-10-12T01:05:22.339Z,14.28
2017-10-12T01:06:22.354Z,14.23
2017-10-12T01:07:22.374Z,14.36
2017-10-12T01:08:22.398Z,14.33
2017-10-12T01:09:22.467Z,14.3
2017-10-12T01:10:22.434Z,14.33
2017-10-12T01:11:22.785Z,14.25
2017-10-12T01:12:22.477Z,14.32
2017-10-12T01:13:22.498Z,14.35
2017-10-12T01:14:22.518Z,14.32
2017-10-12T01:15:22.536Z,14.26
2017-10-12T01:16:22.563Z,14.35
2017-10-12T01:17:22.579Z,14.35
2017-10-12T01:18:22.923Z,14.37
2017-10-12T01:19:22.634Z,14.32
2017-10-12T01:20:22.640Z,14.32
2017-10-12T01:21:22.665Z,14.33
2017-10-12T01:22:22.681Z,14.29
2017-10-12T01:23:22.702Z,14.29
2017-10-12T01:24:22.776Z,14.3
2017-10-12T01:25:22.741Z,14.35
2017-10-12T01:26:22.763Z,14.32
2017-10-12T01:27:22.781Z,14.2
2017-10-12T01:28:22.800Z,14.22
2017-10-12T01:29:22.822Z,14.18
2017-10-12T01:30:22.845Z,14.28
2017-10-12T01:31:23.908Z,14.22
2017-10-12T01:32:23.979Z,14.15
2017-10-12T01:33:22.910Z,14.18
2017-10-12T01:34:22.923Z,14.14
2017-10-12T01:35:22.958Z,14.17
2017-10-12T01:36:22.966Z,14.23
2017-10-12T01:37:22.985Z,14.15
2017-10-12T01:38:23.007Z,14.25
2017-10-12T01:39:23.083Z,14.2
2017-10-12T01:40:23.049Z,14.15
2017-10-12T01:41:23.064Z,14.18
2017-10-12T01:42:23.088Z,14.05
2017-10-12T01:43:23.114Z,14.08
2017-10-12T01:44:23.128Z,14.17
2017-10-12T01:45:23.149Z,14.18
2017-10-12T01:46:23.489Z,14.33
2017-10-12T01:47:23.193Z,14.29
2017-10-12T01:48:23.211Z,14.26
2017-10-12T01:49:23.234Z,14.25
2017-10-12T01:50:23.253Z,14.2
2017-10-12T01:51:23.281Z,14.12
2017-10-12T01:52:23.301Z,14.2
2017-10-12T01:53:23.311Z,14.15
2017-10-12T01:54:23.381Z,14.17
2017-10-12T01:55:23.357Z,14.05
2017-10-12T01:56:23.379Z,14.07
2017-10-12T01:57:23.419Z,13.99
2017-10-12T01:58:23.417Z,14.03
2017-10-12T01:59:23.433Z,13.97
2017-10-12T02:00:23.779Z,13.9
2017-10-12T02:01:23.474Z,13.87
2017-10-12T02:02:23.503Z,13.87
2017-10-12T02:03:23.514Z,13.92
2017-10-12T02:04:23.535Z,13.89
2017-10-12T02:05:23.557Z,13.97
2017-10-12T02:06:23.585Z,13.77
2017-10-12T02:07:23.606Z,13.83
2017-10-12T02:08:23.944Z,13.86
2017-10-12T02:09:23.636Z,13.83
2017-10-12T02:10:23.705Z,13.93
2017-10-12T02:11:23.687Z,13.89
2017-10-12T02:12:23.699Z,13.83
2017-10-12T02:13:23.743Z,13.87
2017-10-12T02:14:23.737Z,14
2017-10-12T02:15:23.758Z,13.89
2017-10-12T02:16:23.778Z,13.87
2017-10-12T02:17:23.800Z,13.83
2017-10-12T02:18:23.822Z,13.85
2017-10-12T02:19:23.838Z,13.9
2017-10-12T02:20:23.863Z,14
2017-10-12T02:21:23.880Z,13.96
2017-10-12T02:22:23.897Z,13.89
2017-10-12T02:23:23.920Z,14.11
2017-10-12T02:24:23.939Z,14.12
2017-10-12T02:25:23.957Z,14.08
2017-10-12T02:26:23.980Z,13.99
2017-10-12T02:27:24.051Z,14.03
2017-10-12T02:28:24.032Z,14.11
2017-10-12T02:29:24.041Z,14.12
2017-10-12T02:30:24.062Z,14.08
2017-10-12T02:31:24.408Z,14.07
2017-10-12T02:32:24.100Z,14.17
2017-10-12T02:33:24.120Z,14.22
2017-10-12T02:34:24.149Z,14.18
2017-10-12T02:35:24.167Z,14.25
2017-10-12T02:36:24.179Z,14.35
2017-10-12T02:37:24.200Z,14.37
2017-10-12T02:38:24.221Z,14.35
2017-10-12T02:39:24.244Z,14.37
2017-10-12T02:40:24.594Z,14.41
2017-10-12T02:41:24.289Z,14.41
2017-10-12T02:42:24.353Z,14.33
2017-10-12T02:43:24.332Z,14.36
2017-10-12T02:44:24.353Z,14.41
2017-10-12T02:45:24.372Z,14.4
2017-10-12T02:46:24.394Z,14.32
2017-10-12T02:47:24.404Z,14.37
2017-10-12T02:48:24.430Z,14.33
2017-10-12T02:49:24.446Z,14.35
2017-10-12T02:50:24.493Z,14.33
2017-10-12T02:51:24.487Z,14.32
2017-10-12T02:52:24.511Z,14.35
2017-10-12T02:53:24.526Z,14.28
2017-10-12T02:54:24.546Z,14.32
2017-10-12T02:55:24.567Z,14.32
2017-10-12T02:56:24.600Z,14.29
2017-10-12T02:57:24.609Z,14.23
2017-10-12T02:58:24.954Z,14.23
2017-10-12T02:59:24.697Z,14.29
2017-10-12T03:00:24.675Z,14.2
2017-10-12T03:01:24.688Z,14.35
2017-10-12T03:02:24.708Z,14.43
2017-10-12T03:03:24.733Z,14.36
2017-10-12T03:04:24.752Z,14.29
2017-10-12T03:05:24.771Z,14.32
2017-10-12T03:06:24.792Z,14.32
2017-10-12T03:07:24.815Z,14.22
2017-10-12T03:08:24.833Z,14.22
2017-10-12T03:09:24.905Z,14.26
2017-10-12T03:10:25.200Z,14.26
2017-10-12T03:11:24.898Z,14.22
2017-10-12T03:12:24.916Z,14.17
2017-10-12T03:13:24.934Z,14.2
2017-10-12T03:14:24.953Z,14.41
2017-10-12T03:15:24.977Z,14.54
2017-10-12T03:16:24.992Z,14.54
2017-10-12T03:17:25.013Z,14.59
2017-10-12T03:18:25.042Z,14.62
2017-10-12T03:19:25.060Z,14.62
2017-10-12T03:20:25.077Z,14.6
2017-10-12T03:21:25.110Z,14.65
2017-10-12T03:22:25.141Z,14.59
2017-10-12T03:23:25.140Z,14.65
2017-10-12T03:24:25.165Z,14.63
2017-10-12T03:25:25.180Z,14.59
2017-10-12T03:26:25.251Z,14.63
2017-10-12T03:27:25.220Z,14.63
2017-10-12T03:28:25.244Z,14.51
2017-10-12T03:29:25.262Z,14.54
2017-10-12T03:30:25.284Z,14.62
2017-10-12T03:31:25.307Z,14.54
2017-10-12T03:32:25.666Z,14.58
2017-10-12T03:33:25.351Z,14.54
2017-10-12T03:34:25.366Z,14.51
2017-10-12T03:35:25.387Z,14.6
2017-10-12T03:36:25.410Z,14.51
2017-10-12T03:37:25.434Z,14.59
2017-10-12T03:38:25.450Z,14.55
2017-10-12T03:39:25.471Z,14.53
2017-10-12T03:40:25.814Z,14.47
2017-10-12T03:41:25.521Z,14.36
2017-10-12T03:42:25.530Z,14.28
2017-10-12T03:43:25.572Z,14.33
2017-10-12T03:44:25.583Z,14.4
2017-10-12T03:45:25.600Z,14.36
2017-10-12T03:46:25.616Z,14.22
2017-10-12T03:47:25.636Z,14.15
2017-10-12T03:48:25.660Z,14.22
2017-10-12T03:49:25.672Z,14.22
2017-10-12T03:50:25.697Z,14.05
2017-10-12T03:51:26.041Z,14.17
2017-10-12T03:52:25.741Z,14.07
2017-10-12T03:53:25.756Z,14.04
2017-10-12T03:54:25.779Z,14.07
2017-10-12T03:55:25.802Z,14.11
2017-10-12T03:56:25.824Z,14.05
2017-10-12T03:57:25.893Z,14.18
2017-10-12T03:58:25.867Z,14.18
2017-10-12T03:59:25.885Z,14.17
2017-10-12T04:00:25.927Z,14.11
2017-10-12T04:01:25.920Z,14.14
2017-10-12T04:02:25.938Z,14.18
2017-10-12T04:03:25.957Z,14.14
2017-10-12T04:04:25.980Z,14.23
2017-10-12T04:05:26.002Z,14.15
2017-10-12T04:06:26.348Z,14.2
2017-10-12T04:07:26.038Z,14.22
2017-10-12T04:08:26.065Z,14.23
2017-10-12T04:09:26.079Z,14.28
2017-10-12T04:10:26.103Z,14.2
2017-10-12T04:11:26.129Z,14.28
2017-10-12T04:12:26.150Z,14.29
2017-10-12T04:13:26.185Z,14.33
2017-10-12T04:14:26.232Z,14.5
2017-10-12T04:15:26.212Z,14.43
2017-10-12T04:16:26.224Z,14.47
2017-10-12T04:17:26.254Z,14.48
2017-10-12T04:18:26.270Z,14.45
2017-10-12T04:19:26.287Z,14.43
2017-10-12T04:20:26.309Z,14.55
2017-10-12T04:21:26.352Z,14.43
2017-10-12T04:22:26.370Z,14.45
2017-10-12T04:23:26.365Z,14.45
2017-10-12T04:24:26.387Z,14.48
2017-10-12T04:25:26.412Z,14.53
2017-10-12T04:26:26.429Z,14.43
2017-10-12T04:27:26.461Z,14.5
2017-10-12T04:28:26.472Z,14.5
2017-10-12T04:29:26.540Z,14.54
2017-10-12T04:30:26.516Z,14.44
2017-10-12T04:31:26.530Z,14.55
2017-10-12T04:32:26.891Z,14.53
2017-10-12T04:33:26.580Z,14.51
2017-10-12T04:34:26.594Z,14.48
2017-10-12T04:35:26.617Z,14.5
2017-10-12T04:36:26.656Z,14.6
2017-10-12T04:37:26.723Z,14.65
2017-10-12T04:38:26.688Z,14.59
2017-10-12T04:39:26.702Z,14.6
2017-10-12T04:40:26.716Z,14.66
2017-10-12T04:41:26.738Z,14.7
2017-10-12T04:42:26.760Z,14.77
2017-10-12T04:43:26.783Z,14.81
2017-10-12T04:44:26.859Z,14.86
2017-10-12T04:45:26.820Z,14.85
2017-10-12T04:46:26.841Z,14.86
2017-10-12T04:47:26.872Z,14.79
2017-10-12T04:48:26.889Z,14.72
2017-10-12T04:49:26.914Z,14.73
2017-10-12T04:50:26.924Z,14.73
2017-10-12T04:51:26.943Z,14.63
2017-10-12T04:52:26.964Z,14.69
2017-10-12T04:53:27.009Z,14.77
2017-10-12T04:54:27.011Z,14.63
2017-10-12T04:55:27.034Z,14.63
2017-10-12T04:56:27.050Z,14.59
2017-10-12T04:57:27.072Z,14.62
2017-10-12T04:58:27.109Z,14.63
2017-10-12T04:59:27.112Z,14.62
2017-10-12T05:00:27.133Z,14.65
2017-10-12T05:01:27.218Z,14.78
2017-10-12T05:02:27.176Z,14.65
2017-10-12T05:03:27.196Z,14.58
2017-10-12T05:04:27.214Z,14.68
2017-10-12T05:05:27.240Z,14.54
2017-10-12T05:06:27.257Z,14.59
2017-10-12T05:07:27.280Z,14.63
2017-10-12T05:08:27.299Z,14.73
2017-10-12T05:09:27.323Z,14.65
2017-10-12T05:10:27.666Z,14.62
2017-10-12T05:11:27.363Z,14.62
2017-10-12T05:12:27.387Z,14.58
2017-10-12T05:13:27.407Z,14.63
2017-10-12T05:14:27.429Z,14.79
2017-10-12T05:15:27.460Z,14.73
2017-10-12T05:16:27.520Z,14.85
2017-10-12T05:17:27.494Z,14.81
2017-10-12T05:18:27.520Z,14.82
2017-10-12T05:19:27.528Z,14.77
2017-10-12T05:20:27.553Z,14.88
2017-10-12T05:21:27.581Z,14.88
2017-10-12T05:22:27.595Z,14.89
2017-10-12T05:23:27.619Z,14.86
2017-10-12T05:24:27.645Z,14.88
2017-10-12T05:25:27.656Z,14.85
2017-10-12T05:26:27.691Z,14.92
2017-10-12T05:27:27.707Z,14.94
2017-10-12T05:28:27.759Z,14.89
2017-10-12T05:29:27.755Z,14.92
2017-10-12T05:30:28.077Z,14.94
2017-10-12T05:31:27.832Z,14.86
2017-10-12T05:32:27.811Z,14.88
2017-10-12T05:33:27.830Z,14.89
2017-10-12T05:34:27.852Z,14.97
2017-10-12T05:35:27.870Z,15.02
2017-10-12T05:36:27.893Z,15
2017-10-12T05:37:28.244Z,15.02
2017-10-12T05:38:27.938Z,15.04
2017-10-12T05:39:27.961Z,15
2017-10-12T05:40:27.971Z,15.03
2017-10-12T05:41:28.047Z,14.94
2017-10-12T05:42:28.010Z,14.86
2017-10-12T05:43:28.368Z,14.96
2017-10-12T05:44:28.055Z,14.89
2017-10-12T05:45:28.079Z,14.89
2017-10-12T05:46:28.097Z,14.97
2017-10-12T05:47:28.123Z,14.91
2017-10-12T05:48:28.143Z,14.92
2017-10-12T05:49:28.169Z,14.89
2017-10-12T05:50:28.193Z,14.91
2017-10-12T05:51:28.211Z,15.02
2017-10-12T05:52:28.222Z,14.86
2017-10-12T05:53:28.591Z,14.89
2017-10-12T05:54:28.266Z,14.85
2017-10-12T05:55:28.290Z,14.84
2017-10-12T05:56:28.365Z,14.88
2017-10-12T05:57:28.327Z,14.91
2017-10-12T05:58:28.352Z,14.91
2017-10-12T05:59:28.378Z,14.86
2017-10-12T06:00:28.393Z,14.86
2017-10-12T06:01:28.634Z,14.96
2017-10-12T06:02:28.438Z,14.86
2017-10-12T06:03:28.462Z,14.91
2017-10-12T06:04:28.834Z,14.88
2017-10-12T06:05:28.500Z,14.91
2017-10-12T06:06:28.519Z,14.86
2017-10-12T06:07:28.546Z,14.92
2017-10-12T06:08:28.569Z,14.88
2017-10-12T06:09:29.258Z,14.94
2017-10-12T06:10:28.604Z,14.91
2017-10-12T06:11:28.633Z,14.81
2017-10-12T06:12:28.653Z,14.88
2017-10-12T06:13:28.669Z,14.88
2017-10-12T06:14:28.696Z,14.96
2017-10-12T06:15:28.712Z,14.85
2017-10-12T06:16:28.758Z,15.03
2017-10-12T06:17:28.757Z,14.96
2017-10-12T06:18:28.769Z,14.91
2017-10-12T06:19:28.798Z,14.99
2017-10-12T06:20:29.146Z,14.91
2017-10-12T06:21:28.831Z,14.94
2017-10-12T06:22:29.181Z,14.89
2017-10-12T06:23:28.882Z,14.94
2017-10-12T06:24:28.899Z,14.94
2017-10-12T06:25:28.919Z,14.99
2017-10-12T06:26:28.940Z,15.06
2017-10-12T06:27:29.013Z,15.03
2017-10-12T06:28:28.986Z,15.07
2017-10-12T06:29:29.007Z,15.11
2017-10-12T06:30:29.024Z,15.14
2017-10-12T06:31:29.051Z,15.09
2017-10-12T06:32:29.083Z,15.14
2017-10-12T06:33:29.088Z,15.07
2017-10-12T06:34:29.107Z,15.17
2017-10-12T06:35:29.132Z,15.19
2017-10-12T06:36:29.149Z,15.21
2017-10-12T06:37:29.176Z,15.21
2017-10-12T06:38:29.223Z,15.28
2017-10-12T06:39:29.214Z,15.31
2017-10-12T06:40:29.564Z,15.36
2017-10-12T06:41:29.259Z,15.36
2017-10-12T06:42:29.284Z,15.42
2017-10-12T06:43:29.299Z,15.4
2017-10-12T06:44:29.323Z,15.39
2017-10-12T06:45:29.349Z,15.35
2017-10-12T06:46:29.365Z,15.37
2017-10-12T06:47:29.385Z,15.54
2017-10-12T06:48:29.406Z,15.55
2017-10-12T06:49:29.426Z,15.58
2017-10-12T06:50:29.448Z,15.54
2017-10-12T06:51:29.478Z,15.73
2017-10-12T06:52:29.491Z,15.7
2017-10-12T06:53:29.851Z,15.55
2017-10-12T06:54:29.545Z,15.65
2017-10-12T06:55:29.883Z,15.76
2017-10-12T06:56:29.574Z,15.86
2017-10-12T06:57:29.593Z,15.86
2017-10-12T06:58:29.623Z,15.9
2017-10-12T06:59:29.640Z,15.94
2017-10-12T07:00:29.714Z,15.94
2017-10-12T07:01:29.682Z,15.97
2017-10-12T07:02:29.710Z,15.95
2017-10-12T07:03:29.731Z,15.98
2017-10-12T07:04:29.752Z,16.12
2017-10-12T07:05:29.771Z,16.12
2017-10-12T07:06:29.786Z,16.12
2017-10-12T07:07:29.807Z,16.09
2017-10-12T07:08:29.835Z,16.23
2017-10-12T07:09:30.184Z,16.12
2017-10-12T07:10:29.897Z,16.1
2017-10-12T07:11:29.918Z,16.2
2017-10-12T07:12:29.925Z,16.24
2017-10-12T07:13:29.938Z,16.41
2017-10-12T07:14:29.963Z,16.32
2017-10-12T07:15:31.093Z,16.36
2017-10-12T07:16:30.009Z,16.42
2017-10-12T07:17:30.045Z,16.53
2017-10-12T07:18:30.046Z,16.54
2017-10-12T07:19:30.070Z,16.61
2017-10-12T07:20:31.117Z,16.49
2017-10-12T07:21:31.338Z,16.71
2017-10-12T07:22:30.135Z,16.75
2017-10-12T07:23:30.164Z,16.6
2017-10-12T07:24:30.178Z,16.72
2017-10-12T07:25:30.213Z,16.58
2017-10-12T07:26:30.225Z,16.74
2017-10-12T07:27:30.572Z,16.74
2017-10-12T07:28:30.610Z,16.81
2017-10-12T07:29:30.628Z,16.79
2017-10-12T07:30:30.318Z,16.89
2017-10-12T07:31:30.343Z,16.89
2017-10-12T07:32:30.689Z,16.96
2017-10-12T07:33:30.388Z,16.93
2017-10-12T07:34:30.403Z,17.05
2017-10-12T07:35:30.432Z,17.05
2017-10-12T07:36:30.773Z,17.05
2017-10-12T07:37:30.467Z,17.11
2017-10-12T07:38:30.492Z,17.15
2017-10-12T07:39:30.514Z,17.33
2017-10-12T07:40:30.876Z,17.26
2017-10-12T07:41:30.590Z,17.31
2017-10-12T07:42:30.582Z,17.36
2017-10-12T07:43:30.935Z,17.41
2017-10-12T07:44:30.628Z,17.51
2017-10-12T07:45:30.648Z,17.51
2017-10-12T07:46:30.670Z,17.6
2017-10-12T07:47:30.700Z,17.65
2017-10-12T07:48:30.714Z,17.74
2017-10-12T07:49:30.737Z,17.92
2017-10-12T07:50:30.815Z,17.74
2017-10-12T07:51:31.116Z,17.64
2017-10-12T07:52:30.802Z,17.6
2017-10-12T07:53:31.157Z,17.54
2017-10-12T07:54:30.853Z,17.68
2017-10-12T07:55:30.877Z,17.76
2017-10-12T07:56:31.226Z,17.71
2017-10-12T07:57:30.915Z,17.71
2017-10-12T07:58:30.955Z,17.79
2017-10-12T07:59:30.959Z,17.8
2017-10-12T08:00:30.994Z,17.87
2017-10-12T08:01:31.008Z,17.94
2017-10-12T08:02:31.029Z,17.97
2017-10-12T08:03:31.382Z,18.08
2017-10-12T08:04:31.401Z,18.18
2017-10-12T08:05:31.143Z,18.25
2017-10-12T08:06:31.121Z,18.15
2017-10-12T08:07:31.143Z,18.19
2017-10-12T08:08:31.172Z,18.05
2017-10-12T08:09:31.196Z,18.22
2017-10-12T08:10:31.241Z,18.34
2017-10-12T08:11:31.233Z,18.23
2017-10-12T08:12:31.267Z,18.38
2017-10-12T08:13:31.277Z,18.43
2017-10-12T08:14:31.305Z,18.4
2017-10-12T08:15:31.340Z,18.56
2017-10-12T08:16:31.358Z,18.65
2017-10-12T08:17:31.377Z,18.71
2017-10-12T08:18:31.405Z,18.7
2017-10-12T08:19:31.750Z,18.71
2017-10-12T08:20:31.443Z,18.74
2017-10-12T08:21:31.466Z,18.68
2017-10-12T08:22:31.516Z,18.5
2017-10-12T08:23:31.514Z,18.52
2017-10-12T08:24:31.535Z,18.56
2017-10-12T08:25:31.559Z,18.55
2017-10-12T08:26:31.585Z,18.52
2017-10-12T08:27:31.608Z,18.41
2017-10-12T08:28:31.646Z,18.41
2017-10-12T08:29:31.657Z,18.43
2017-10-12T08:30:31.996Z,18.49
2017-10-12T08:31:31.707Z,18.5
2017-10-12T08:32:32.048Z,18.55
2017-10-12T08:33:32.095Z,18.77
2017-10-12T08:34:31.780Z,18.8
2017-10-12T08:35:31.812Z,18.95
2017-10-12T08:36:31.821Z,18.93
2017-10-12T08:37:32.241Z,18.93
2017-10-12T08:38:31.868Z,19.07
2017-10-12T08:39:32.214Z,18.83
2017-10-12T08:40:31.914Z,18.86
2017-10-12T08:41:31.953Z,18.99
2017-10-12T08:42:31.969Z,18.89
2017-10-12T08:43:32.414Z,18.78
2017-10-12T08:44:32.012Z,18.89
2017-10-12T08:45:32.043Z,19.09
2017-10-12T08:46:32.058Z,19.29
2017-10-12T08:47:32.082Z,19.33
2017-10-12T08:48:32.108Z,19.37
2017-10-12T08:49:32.128Z,19.51
2017-10-12T08:50:32.156Z,19.55
2017-10-12T08:51:32.184Z,19.71
2017-10-12T08:52:32.209Z,19.66
2017-10-12T08:53:32.608Z,19.73
2017-10-12T08:54:32.250Z,19.82
2017-10-12T08:55:32.278Z,19.88
2017-10-12T08:56:32.300Z,19.85
2017-10-12T08:57:32.325Z,20.13
2017-10-12T08:58:32.347Z,20.21
2017-10-12T08:59:32.372Z,20.24
2017-10-12T09:00:32.399Z,20.37
2017-10-12T09:01:32.422Z,20.28
2017-10-12T09:02:32.449Z,20.34
2017-10-12T09:03:32.471Z,20.34
2017-10-12T09:04:32.498Z,20.32
2017-10-12T09:05:32.852Z,20.16
2017-10-12T09:06:32.553Z,20.02
2017-10-12T09:07:32.570Z,20.04
2017-10-12T09:08:32.647Z,20.03
2017-10-12T09:09:32.945Z,20.1
2017-10-12T09:10:32.873Z,20.1
2017-10-12T09:11:32.674Z,20.24
2017-10-12T09:12:32.692Z,20.34
2017-10-12T09:13:33.060Z,20.19
2017-10-12T09:14:32.751Z,20.18
2017-10-12T09:15:32.774Z,20.18
2017-10-12T09:16:32.795Z,20.14
2017-10-12T09:17:32.834Z,19.89
2017-10-12T09:18:32.842Z,19.94
2017-10-12T09:19:32.864Z,20.03
2017-10-12T09:20:32.893Z,20.18
2017-10-12T09:21:33.253Z,20.22
2017-10-12T09:22:32.944Z,20.26
2017-10-12T09:23:33.344Z,20.07
2017-10-12T09:24:33.001Z,20.11
2017-10-12T09:25:33.022Z,20.31
2017-10-12T09:26:33.037Z,20.28
2017-10-12T09:27:33.064Z,20.43
2017-10-12T09:28:33.106Z,20.56
2017-10-12T09:29:33.124Z,20.39
2017-10-12T09:30:33.139Z,20.44
2017-10-12T09:31:33.163Z,20.43
2017-10-12T09:32:33.193Z,20.32
2017-10-12T09:33:33.223Z,20.29
2017-10-12T09:34:33.244Z,20.4
2017-10-12T09:35:33.268Z,20.56
2017-10-12T09:36:33.388Z,20.5
2017-10-12T09:37:33.648Z,20.58
2017-10-12T09:38:33.343Z,20.67
2017-10-12T09:39:33.367Z,20.95
2017-10-12T09:40:33.390Z,21.03
2017-10-12T09:41:33.474Z,20.74
2017-10-12T09:42:33.443Z,20.67
2017-10-12T09:43:33.467Z,20.56
2017-10-12T09:44:33.494Z,20.59
2017-10-12T09:45:33.529Z,20.84
2017-10-12T09:46:33.542Z,20.88
2017-10-12T09:47:33.572Z,20.72
2017-10-12T09:48:33.597Z,20.81
2017-10-12T09:49:33.618Z,20.66
2017-10-12T09:50:33.650Z,20.78
2017-10-12T09:51:33.668Z,20.93
2017-10-12T09:52:34.023Z,20.78
2017-10-12T09:53:34.043Z,20.77
2017-10-12T09:54:34.077Z,20.55
2017-10-12T09:55:33.775Z,20.55
2017-10-12T09:56:33.795Z,20.56
2017-10-12T09:57:33.823Z,20.63
2017-10-12T09:58:33.845Z,20.4
2017-10-12T09:59:33.875Z,20.32
2017-10-12T10:00:33.945Z,20.37
2017-10-12T10:01:33.927Z,20.39
2017-10-12T10:02:33.952Z,20.44
2017-10-12T10:03:33.972Z,20.48
2017-10-12T10:04:33.995Z,20.52
2017-10-12T10:05:34.020Z,20.59
2017-10-12T10:06:34.068Z,20.44
2017-10-12T10:07:34.072Z,20.36
2017-10-12T10:08:34.102Z,20.47
2017-10-12T10:09:34.132Z,20.58
2017-10-12T10:10:34.145Z,20.7
2017-10-12T10:11:34.170Z,20.87
2017-10-12T10:12:34.201Z,20.74
2017-10-12T10:13:34.222Z,20.78
2017-10-12T10:14:34.252Z,20.9
2017-10-12T10:15:34.334Z,20.75
2017-10-12T10:16:34.303Z,20.74
2017-10-12T10:17:34.646Z,20.6
2017-10-12T10:18:34.355Z,20.4
2017-10-12T10:19:34.382Z,20.31
2017-10-12T10:20:34.397Z,20.28
2017-10-12T10:21:34.427Z,20.16
2017-10-12T10:22:34.783Z,20.18
2017-10-12T10:23:34.488Z,20.32
2017-10-12T10:24:34.523Z,20.65
2017-10-12T10:25:34.528Z,20.81
2017-10-12T10:26:34.554Z,21.15
2017-10-12T10:27:34.579Z,21.42
2017-10-12T10:28:34.606Z,21.32
2017-10-12T10:29:34.630Z,21.24
2017-10-12T10:30:34.717Z,20.99
2017-10-12T10:31:34.699Z,21.03
2017-10-12T10:32:34.715Z,21.03
2017-10-12T10:33:35.067Z,21.27
2017-10-12T10:34:34.757Z,21.25
2017-10-12T10:35:34.789Z,21.39
2017-10-12T10:36:34.812Z,21.4
2017-10-12T10:37:34.842Z,21.33
2017-10-12T10:38:34.871Z,21.52
2017-10-12T10:39:34.894Z,21.77
2017-10-12T10:40:34.922Z,22
2017-10-12T10:41:34.950Z,22.17
2017-10-12T10:42:34.984Z,22.14
2017-10-12T10:43:34.999Z,22.06
2017-10-12T10:44:35.230Z,22.33
2017-10-12T10:45:35.385Z,22.45
2017-10-12T10:46:35.089Z,22.14
2017-10-12T10:47:35.110Z,21.72
2017-10-12T10:48:35.191Z,21.48
2017-10-12T10:49:35.162Z,21.27
2017-10-12T10:50:35.191Z,21.12
2017-10-12T10:51:35.229Z,21.05
2017-10-12T10:52:35.249Z,21.24
2017-10-12T10:53:35.280Z,21.32
2017-10-12T10:54:35.295Z,21.24
2017-10-12T10:55:35.324Z,21.17
2017-10-12T10:56:35.346Z,20.9
2017-10-12T10:57:35.374Z,20.87
2017-10-12T10:58:35.405Z,20.9
2017-10-12T10:59:35.425Z,20.81
2017-10-12T11:00:35.448Z,20.44
2017-10-12T11:01:35.478Z,20.43
2017-10-12T11:02:35.503Z,20.56
2017-10-12T11:03:35.582Z,20.55
2017-10-12T11:04:35.552Z,20.66
2017-10-12T11:05:35.580Z,20.36
2017-10-12T11:06:35.609Z,20.21
2017-10-12T11:07:35.632Z,20.25
2017-10-12T11:08:35.980Z,20.24
2017-10-12T11:09:35.684Z,20.32
2017-10-12T11:10:35.705Z,20.26
2017-10-12T11:11:35.725Z,20.22
2017-10-12T11:12:35.759Z,19.94
2017-10-12T11:13:35.792Z,19.79
2017-10-12T11:14:35.810Z,19.76
2017-10-12T11:15:36.151Z,19.54
2017-10-12T11:16:35.851Z,19.69
2017-10-12T11:17:35.881Z,19.69
2017-10-12T11:18:35.902Z,19.76
2017-10-12T11:19:35.930Z,19.64
2017-10-12T11:20:36.000Z,19.74
2017-10-12T11:21:35.972Z,19.66
2017-10-12T11:22:36.002Z,19.59
2017-10-12T11:23:36.026Z,19.41
2017-10-12T11:24:36.048Z,19.55
2017-10-12T11:25:36.068Z,19.34
2017-10-12T11:26:36.098Z,19.51
2017-10-12T11:27:36.122Z,19.19
2017-10-12T11:28:36.482Z,19.18
2017-10-12T11:29:36.166Z,18.98
2017-10-12T11:30:36.190Z,18.93
2017-10-12T11:31:36.214Z,18.95
2017-10-12T11:32:36.234Z,18.83
2017-10-12T11:33:36.264Z,19.14
2017-10-12T11:34:36.298Z,19.16
2017-10-12T11:35:36.356Z,19.16
2017-10-12T11:36:36.335Z,19.08
2017-10-12T11:37:36.357Z,18.98
2017-10-12T11:38:36.387Z,19.09
2017-10-12T11:39:36.404Z,18.96
2017-10-12T11:40:36.428Z,19.15
2017-10-12T11:41:36.447Z,18.9
2017-10-12T11:42:36.471Z,18.9
2017-10-12T11:43:36.494Z,18.74
2017-10-12T11:44:36.521Z,18.71
2017-10-12T11:45:36.543Z,18.5
2017-10-12T11:46:36.570Z,18.53
2017-10-12T11:47:36.589Z,18.58
2017-10-12T11:48:36.613Z,18.75
2017-10-12T11:49:36.641Z,18.73
2017-10-12T11:50:36.730Z,18.68
2017-10-12T11:51:36.680Z,18.59
2017-10-12T11:52:36.706Z,18.62
2017-10-12T11:53:36.731Z,18.71
2017-10-12T11:54:36.750Z,18.66
2017-10-12T11:55:36.773Z,18.6
2017-10-12T11:56:36.796Z,18.62
2017-10-12T11:57:36.821Z,18.52
2017-10-12T11:58:36.842Z,18.58
2017-10-12T11:59:36.877Z,18.74
2017-10-12T12:00:36.897Z,18.7
2017-10-12T12:01:36.916Z,18.65
2017-10-12T12:02:36.930Z,18.63
2017-10-12T12:03:36.955Z,18.65
2017-10-12T12:04:36.981Z,18.71
2017-10-12T12:05:37.387Z,18.74
2017-10-12T12:06:37.034Z,18.44
2017-10-12T12:07:37.057Z,18.5
2017-10-12T12:08:37.072Z,18.49
2017-10-12T12:09:37.094Z,18.5
2017-10-12T12:10:37.122Z,18.52
2017-10-12T12:11:37.141Z,18.49
2017-10-12T12:12:37.162Z,18.41
2017-10-12T12:13:37.197Z,18.37
2017-10-12T12:14:37.209Z,18.37
2017-10-12T12:15:37.237Z,18.38
2017-10-12T12:16:37.261Z,18.4
2017-10-12T12:17:37.278Z,18.37
2017-10-12T12:18:37.301Z,18.52
2017-10-12T12:19:37.332Z,18.4
2017-10-12T12:20:37.357Z,18.43
2017-10-12T12:21:37.370Z,18.33
2017-10-12T12:22:37.399Z,18.49
2017-10-12T12:23:37.421Z,18.66
2017-10-12T12:24:37.442Z,18.66
2017-10-12T12:25:37.465Z,18.49
2017-10-12T12:26:37.482Z,18.5
2017-10-12T12:27:37.524Z,18.52
2017-10-12T12:28:37.539Z,18.52
2017-10-12T12:29:37.562Z,18.59
2017-10-12T12:30:37.600Z,18.6
2017-10-12T12:31:37.605Z,18.74
2017-10-12T12:32:37.922Z,18.62
2017-10-12T12:33:37.649Z,18.56
2017-10-12T12:34:37.685Z,18.7
2017-10-12T12:35:38.030Z,18.6
2017-10-12T12:36:37.734Z,18.55
2017-10-12T12:37:37.747Z,18.44
2017-10-12T12:38:37.769Z,18.56
2017-10-12T12:39:37.803Z,18.58
2017-10-12T12:40:37.817Z,18.59
2017-10-12T12:41:37.884Z,18.7
2017-10-12T12:42:37.863Z,18.66
2017-10-12T12:43:37.883Z,18.7
2017-10-12T12:44:37.921Z,18.78
2017-10-12T12:45:37.928Z,18.84
2017-10-12T12:46:37.956Z,18.96
2017-10-12T12:47:37.976Z,19.02
2017-10-12T12:48:38.341Z,19.15
2017-10-12T12:49:38.026Z,19.16
2017-10-12T12:50:38.051Z,19.11
2017-10-12T12:51:38.075Z,19.19
2017-10-12T12:52:38.095Z,19.36
2017-10-12T12:53:38.114Z,19.47
2017-10-12T12:54:38.145Z,19.71
2017-10-12T12:55:38.174Z,20.19